| time (UTC) | temp F | wind direction | speed MPH | gust MPH | rain 1hr in | rain 24hr in | rain mn in | humidity % | barometer mb |
| 20260904195924 | 0 | 132 | 4.0 | 6.0 | 0.00 | 0.00 | 0.00 | 1062.4 | |
| 20260904195422 | 0 | 190 | 1.0 | 10.0 | 0.00 | 0.00 | 0.00 | 1062.3 | |
| 20260904194922 | 0 | 160 | 1.0 | 2.0 | 0.00 | 0.00 | 0.00 | 1062.5 | |
| 20260904194421 | 0 | 150 | 2.0 | 3.0 | 0.00 | 0.00 | 0.00 | 1062.4 | |
| 20260904193917 | 0 | 114 | 1.0 | 2.0 | 0.00 | 0.00 | 0.00 | 1062.5 | |
| 20260904193412 | 0 | 167 | 4.0 | 10.0 | 0.00 | 0.00 | 0.00 | 1062.5 | |
| 20260904192907 | 0 | 126 | 0.0 | 3.0 | 0.00 | 0.00 | 0.00 | 1062.4 | |
| 20260904192403 | 0 | 135 | 2.0 | 5.0 | 0.00 | 0.00 | 0.00 | 1062.6 | |
| 20260904191859 | 0 | 162 | 1.0 | 3.0 | 0.00 | 0.00 | 0.00 | 1062.9 | |
| 20260904191355 | 0 | 180 | 4.0 | 7.0 | 0.00 | 0.00 | 0.00 | 1062.7 | |
| 20260904190852 | 0 | 177 | 4.0 | 5.0 | 0.00 | 0.00 | 0.00 | 1062.6 | |
| 20260904190347 | 0 | 175 | 4.0 | 7.0 | 0.00 | 0.00 | 0.00 | 1062.8 | |
| 20260904185843 | 0 | 146 | 5.0 | 7.0 | 0.00 | 0.00 | 0.00 | 1063.0 | |
| 20260904185338 | 0 | 142 | 3.0 | 8.0 | 0.00 | 0.00 | 0.00 | 1063.1 | |
| 20260904184838 | 0 | 157 | 0.0 | 2.0 | 0.00 | 0.00 | 0.00 | 1063.0 | |
| 20260904184333 | 0 | 192 | 4.0 | 9.0 | 0.00 | 0.00 | 0.00 | 1063.4 | |
| 20260904183828 | 0 | 182 | 5.0 | 6.0 | 0.00 | 0.00 | 0.00 | 1063.0 | |
| 20260904183323 | 0 | 189 | 6.0 | 8.0 | 0.00 | 0.00 | 0.00 | 1063.5 | |
| 20260904182819 | 0 | 156 | 8.0 | 11.0 | 0.00 | 0.00 | 0.00 | 1063.6 | |
| 20260904182314 | 0 | 196 | 3.0 | 5.0 | 0.00 | 0.00 | 0.00 | 1063.4 | |
| 20260904181811 | 0 | 181 | 2.0 | 5.0 | 0.00 | 0.00 | 0.00 | 1063.4 | |
| 20260904181309 | 0 | 126 | 1.0 | 3.0 | 0.00 | 0.00 | 0.00 | 1063.6 | |
| 20260904180804 | 0 | 267 | 4.0 | 6.0 | 0.00 | 0.00 | 0.00 | 1063.7 | |
| 20260904180305 | 0 | 186 | 1.0 | 3.0 | 0.00 | 0.00 | 0.00 | 1063.5 | |
| 20260904175803 | 0 | 144 | 1.0 | 5.0 | 0.00 | 0.00 | 0.00 | 1063.8 | |
| 20260904175305 | 0 | 128 | 1.0 | 3.0 | 0.00 | 0.00 | 0.00 | 1063.6 | |
| 20260904174757 | 0 | 161 | 3.0 | 3.0 | 0.00 | 0.00 | 0.00 | 1063.7 | |
| 20260904174253 | 0 | 224 | 3.0 | 5.0 | 0.00 | 0.00 | 0.00 | 1063.7 | |
| 20260904173750 | 0 | 177 | 5.0 | 8.0 | 0.00 | 0.00 | 0.00 | 1064.0 | |
| 20260904173249 | 0 | 135 | 4.0 | 6.0 | 0.00 | 0.00 | 0.00 | 1064.1 | |
| 20260904172746 | 0 | 251 | 3.0 | 7.0 | 0.00 | 0.00 | 0.00 | 1064.1 | |
| 20260904172244 | 0 | 182 | 3.0 | 3.0 | 0.00 | 0.00 | 0.00 | 1063.9 | |
| 20260904171740 | 0 | 163 | 1.0 | 3.0 | 0.00 | 0.00 | 0.00 | 1063.9 | |
| 20260904171236 | 0 | 148 | 0.0 | 2.0 | 0.00 | 0.00 | 0.00 | 1064.1 | |
| 20260904170732 | 0 | 196 | 3.0 | 5.0 | 0.00 | 0.00 | 0.00 | 1064.1 | |
| 20260904170228 | 0 | 196 | 4.0 | 10.0 | 0.00 | 0.00 | 0.00 | 1064.2 | |
| 20260904165726 | 0 | 178 | 1.0 | 3.0 | 0.00 | 0.00 | 0.00 | 1064.3 | |
| 20260904165221 | 0 | 182 | 2.0 | 7.0 | 0.00 | 0.00 | 0.00 | 1064.3 | |
| 20260904164715 | 0 | 207 | 6.0 | 7.0 | 0.00 | 0.00 | 0.00 | 1064.4 | |
| 20260904164209 | 0 | 162 | 2.0 | 3.0 | 0.00 | 0.00 | 0.00 | 1064.2 | |
| 20260904163706 | 0 | 171 | 3.0 | 7.0 | 0.00 | 0.00 | 0.00 | 1064.3 | |
| 20260904163201 | 0 | 161 | 2.0 | 5.0 | 0.00 | 0.00 | 0.00 | 1064.2 | |
| 20260904162659 | 0 | 210 | 2.0 | 5.0 | 0.00 | 0.00 | 0.00 | 1064.5 | |
| 20260904162154 | 0 | 130 | 5.0 | 8.0 | 0.00 | 0.00 | 0.00 | 1064.2 | |
| 20260904161650 | 0 | 158 | 1.0 | 6.0 | 0.00 | 0.00 | 0.00 | 1064.3 | |
| 20260904161145 | 0 | 203 | 2.0 | 3.0 | 0.00 | 0.00 | 0.00 | 1064.4 | |
| 20260904160641 | 0 | 156 | 4.0 | 6.0 | 0.00 | 0.00 | 0.00 | 1064.3 | |
| 20260904160136 | 0 | 162 | 1.0 | 3.0 | 0.00 | 0.00 | 0.00 | 1064.3 | |
| 20260904155632 | 0 | 171 | 2.0 | 6.0 | 0.00 | 0.00 | 0.00 | 1064.5 | |
| 20260904155126 | 0 | 147 | 1.0 | 3.0 | 0.00 | 0.00 | 0.00 | 1064.6 | |
| 20260904154625 | 0 | 261 | 4.0 | 5.0 | 0.00 | 0.00 | 0.00 | 1064.5 | |
| 20260904154125 | 0 | 291 | 3.0 | 5.0 | 0.00 | 0.00 | 0.00 | 1064.5 | |
| 20260904153620 | 0 | 169 | 2.0 | 2.0 | 0.00 | 0.00 | 0.00 | 1064.5 | |
| 20260904153115 | 0 | 200 | 2.0 | 5.0 | 0.00 | 0.00 | 0.00 | 1064.4 | |
| 20260904152612 | 0 | 146 | 2.0 | 3.0 | 0.00 | 0.00 | 0.00 | 1064.6 | |
| 20260904152107 | 0 | 182 | 1.0 | 3.0 | 0.00 | 0.00 | 0.00 | 1064.6 | |
| 20260904151601 | 0 | 240 | 4.0 | 5.0 | 0.00 | 0.00 | 0.00 | 1064.5 | |
| 20260904151055 | 0 | 257 | 5.0 | 6.0 | 0.00 | 0.00 | 0.00 | 1064.5 | |
| 20260904150550 | 0 | 224 | 4.0 | 9.0 | 0.00 | 0.00 | 0.00 | 1064.4 | |
| 20260904150045 | 0 | 186 | 1.0 | 2.0 | 0.00 | 0.00 | 0.00 | 1064.4 | |
| 20260904145544 | 0 | 164 | 2.0 | 2.0 | 0.00 | 0.00 | 0.00 | 1064.4 | |
| 20260904145039 | 0 | 300 | 7.0 | 8.0 | 0.00 | 0.00 | 0.00 | 1064.3 | |
| 20260904144536 | 0 | 169 | 1.0 | 6.0 | 0.00 | 0.00 | 0.00 | 1064.4 | |
| 20260904144031 | 0 | 223 | 2.0 | 3.0 | 0.00 | 0.00 | 0.00 | 1064.2 | |
| 20260904143527 | 0 | 141 | 1.0 | 2.0 | 0.00 | 0.00 | 0.00 | 1064.2 | |
| 20260904143024 | 0 | 225 | 5.0 | 7.0 | 0.00 | 0.00 | 0.00 | 1064.3 | |
| 20260904142520 | 0 | 258 | 4.0 | 5.0 | 0.00 | 0.00 | 0.00 | 1064.4 | |
| 20260904142019 | 0 | 194 | 3.0 | 3.0 | 0.00 | 0.00 | 0.00 | 1064.2 | |
| 20260904141514 | 0 | 194 | 2.0 | 3.0 | 0.00 | 0.00 | 0.00 | 1064.3 | |
| 20260904141010 | 0 | 151 | 1.0 | 6.0 | 0.00 | 0.00 | 0.00 | 1064.2 | |
| 20260904140505 | 0 | 148 | 1.0 | 3.0 | 0.00 | 0.00 | 0.00 | 1064.3 | |
| 20260904140004 | 0 | 272 | 6.0 | 7.0 | 0.00 | 0.00 | 0.00 | 1064.4 | |
| 20260904135458 | 0 | 198 | 1.0 | 5.0 | 0.00 | 0.00 | 0.00 | 1064.1 | |
| 20260904134955 | 0 | 166 | 4.0 | 7.0 | 0.00 | 0.00 | 0.00 | 1064.3 | |
| 20260904134455 | 0 | 147 | 1.0 | 2.0 | 0.00 | 0.00 | 0.00 | 1064.3 | |
| 20260904133949 | 0 | 135 | 0.0 | 1.0 | 0.00 | 0.00 | 0.00 | 1064.2 | |
| 20260904133444 | 0 | 149 | 0.0 | 2.0 | 0.00 | 0.00 | 0.00 | 1064.4 | |
| 20260904132939 | 0 | 144 | 1.0 | 3.0 | 0.00 | 0.00 | 0.00 | 1064.3 | |
| 20260904132435 | 0 | 151 | 0.0 | 2.0 | 0.00 | 0.00 | 0.00 | 1064.3 | |
| 20260904131934 | 0 | 150 | 1.0 | 1.0 | 0.00 | 0.00 | 0.00 | 1064.1 | |
| 20260904131429 | 0 | 154 | 1.0 | 1.0 | 0.00 | 0.00 | 0.00 | 1064.1 | |
| 20260904130926 | 0 | 147 | 0.0 | 1.0 | 0.00 | 0.00 | 0.00 | 1064.5 | |
| 20260904130424 | 0 | 151 | 1.0 | 2.0 | 0.00 | 0.00 | 0.00 | 1064.2 | |
| 20260904125919 | 0 | 153 | 0.0 | 1.0 | 0.00 | 0.00 | 0.00 | 1064.1 | |
| 20260904125416 | 0 | 164 | 1.0 | 1.0 | 0.00 | 0.00 | 0.00 | 1064.3 | |
| 20260904124915 | 0 | 150 | 0.0 | 1.0 | 0.00 | 0.00 | 0.00 | 1064.2 | |
| 20260904124411 | 0 | 152 | 1.0 | 1.0 | 0.00 | 0.00 | 0.00 | 1064.0 | |
| 20260904123907 | 0 | 160 | 1.0 | 1.0 | 0.00 | 0.00 | 0.00 | 1064.1 | |
| 20260904123401 | 0 | 168 | 1.0 | 1.0 | 0.00 | 0.00 | 0.00 | 1064.0 | |
| 20260904122857 | 0 | 146 | 0.0 | 0.0 | 0.00 | 0.00 | 0.00 | 1063.9 | |
| 20260904122356 | 0 | 145 | 0.0 | 0.0 | 0.00 | 0.00 | 0.00 | 1063.9 | |
| 20260904121851 | 0 | 148 | 0.0 | 1.0 | 0.00 | 0.00 | 0.00 | 1063.9 | |
| 20260904121347 | 0 | 146 | 0.0 | 1.0 | 0.00 | 0.00 | 0.00 | 1063.9 | |
| 20260904120843 | 0 | 150 | 0.0 | 1.0 | 0.00 | 0.00 | 0.00 | 1064.0 | |
| 20260904120339 | 0 | 147 | 0.0 | 1.0 | 0.00 | 0.00 | 0.00 | 1063.9 | |
| 20260904115833 | 0 | 151 | 0.0 | 1.0 | 0.00 | 0.00 | 0.00 | 1064.0 | |
| 20260904115329 | 0 | 156 | 1.0 | 1.0 | 0.00 | 0.00 | 0.00 | 1064.0 | |
| 20260904114824 | 0 | 156 | 1.0 | 1.0 | 0.00 | 0.00 | 0.00 | 1063.6 | |
| 20260904114318 | 0 | 153 | 0.0 | 0.0 | 0.00 | 0.00 | 0.00 | 1063.7 | |
| 20260904113813 | 0 | 153 | 0.0 | 1.0 | 0.00 | 0.00 | 0.00 | 1063.8 | |
| 20260904113313 | 0 | 147 | 0.0 | 1.0 | 0.00 | 0.00 | 0.00 | 1063.6 | |
| 20260904112807 | 0 | 158 | 1.0 | 1.0 | 0.00 | 0.00 | 0.00 | 1063.4 | |
| 20260904112306 | 0 | 154 | 1.0 | 1.0 | 0.00 | 0.00 | 0.00 | 1063.4 | |
| 20260904111758 | 0 | 156 | 1.0 | 1.0 | 0.00 | 0.00 | 0.00 | 1063.5 | |
| 20260904111254 | 0 | 155 | 1.0 | 3.0 | 0.00 | 0.00 | 0.00 | 1063.3 | |
| 20260904110750 | 0 | 156 | 1.0 | 2.0 | 0.00 | 0.00 | 0.00 | 1063.6 | |
| 20260904110248 | 0 | 168 | 1.0 | 1.0 | 0.00 | 0.00 | 0.00 | 1063.3 | |
| 20260904105744 | 0 | 154 | 0.0 | 1.0 | 0.00 | 0.00 | 0.00 | 1063.4 | |
| 20260904105238 | 0 | 156 | 0.0 | 1.0 | 0.00 | 0.00 | 0.00 | 1063.5 | |
| 20260904104734 | 0 | 152 | 0.0 | 1.0 | 0.00 | 0.00 | 0.00 | 1063.3 | |
| 20260904104229 | 0 | 151 | 0.0 | 1.0 | 0.00 | 0.00 | 0.00 | 1063.3 | |
| 20260904103726 | 0 | 166 | 1.0 | 1.0 | 0.00 | 0.00 | 0.00 | 1063.4 | |
| 20260904103221 | 0 | 153 | 1.0 | 1.0 | 0.00 | 0.00 | 0.00 | 1063.5 | |
| 20260904102717 | 0 | 159 | 1.0 | 1.0 | 0.00 | 0.00 | 0.00 | 1063.4 | |
| 20260904102212 | 0 | 164 | 0.0 | 1.0 | 0.00 | 0.00 | 0.00 | 1063.1 | |
| 20260904101708 | 0 | 160 | 1.0 | 1.0 | 0.00 | 0.00 | 0.00 | 1063.0 | |
| 20260904101203 | 0 | 158 | 0.0 | 1.0 | 0.00 | 0.00 | 0.00 | 1063.0 | |
| 20260904100654 | 0 | 155 | 1.0 | 1.0 | 0.00 | 0.00 | 0.00 | 1062.9 | |
| 20260904100149 | 0 | 163 | 0.0 | 1.0 | 0.00 | 0.00 | 0.00 | 1062.8 | |
| 20260904095648 | 0 | 144 | 0.0 | 1.0 | 0.00 | 0.00 | 0.00 | 1062.9 | |
| 20260904095143 | 0 | 153 | 2.0 | 2.0 | 0.00 | 0.00 | 0.00 | 1063.1 | |
| 20260904094638 | 0 | 141 | 0.0 | 2.0 | 0.00 | 0.00 | 0.00 | 1062.8 | |
| 20260904094133 | 0 | 158 | 1.0 | 2.0 | 0.00 | 0.00 | 0.00 | 1062.8 | |
| 20260904093630 | 0 | 155 | 1.0 | 2.0 | 0.00 | 0.00 | 0.00 | 1062.7 | |
| 20260904093129 | 0 | 160 | 1.0 | 2.0 | 0.00 | 0.00 | 0.00 | 1062.7 | |
| 20260904092626 | 0 | 158 | 1.0 | 2.0 | 0.00 | 0.00 | 0.00 | 1062.9 | |
| 20260904092122 | 0 | 156 | 1.0 | 2.0 | 0.00 | 0.00 | 0.00 | 1062.9 | |
| 20260904091617 | 0 | 153 | 1.0 | 1.0 | 0.00 | 0.00 | 0.00 | 1062.4 | |
| 20260904091117 | 0 | 165 | 1.0 | 2.0 | 0.00 | 0.00 | 0.00 | 1062.7 | |
| 20260904090612 | 0 | 187 | 2.0 | 2.0 | 0.00 | 0.00 | 0.00 | 1062.7 | |
| 20260904090108 | 0 | 164 | 2.0 | 2.0 | 0.00 | 0.00 | 0.00 | 1062.5 | |
| 20260904085603 | 0 | 178 | 2.0 | 2.0 | 0.00 | 0.00 | 0.00 | 1062.4 | |
| 20260904085057 | 0 | 166 | 2.0 | 2.0 | 0.00 | 0.00 | 0.00 | 1062.6 | |
| 20260904084553 | 0 | 162 | 1.0 | 2.0 | 0.00 | 0.00 | 0.00 | 1062.5 | |
| 20260904084049 | 0 | 171 | 1.0 | 2.0 | 0.00 | 0.00 | 0.00 | 1062.4 | |
| 20260904083545 | 0 | 151 | 0.0 | 2.0 | 0.00 | 0.00 | 0.00 | 1062.4 | |
| 20260904083040 | 0 | 163 | 1.0 | 2.0 | 0.00 | 0.00 | 0.00 | 1062.5 | |
| 20260904082535 | 0 | 173 | 1.0 | 2.0 | 0.00 | 0.00 | 0.00 | 1062.5 | |
| 20260904082030 | 0 | 175 | 1.0 | 3.0 | 0.00 | 0.00 | 0.00 | 1062.4 | |
| 20260904081526 | 0 | 166 | 1.0 | 2.0 | 0.00 | 0.00 | 0.00 | 1062.4 | |
| 20260904081021 | 0 | 156 | 1.0 | 2.0 | 0.00 | 0.00 | 0.00 | 1062.1 | |
| 20260904080516 | 0 | 189 | 2.0 | 3.0 | 0.00 | 0.00 | 0.00 | 1062.2 | |
| 20260904080013 | 0 | 142 | 3.0 | 5.0 | 0.00 | 0.00 | 0.00 | 1062.3 | |
| 20260904075509 | 0 | 176 | 2.0 | 5.0 | 0.00 | 0.00 | 0.00 | 1062.2 | |
| 20260904075009 | 0 | 158 | 1.0 | 1.0 | 0.00 | 0.00 | 0.00 | 1062.4 | |
| 20260904074502 | 0 | 143 | 2.0 | 3.0 | 0.00 | 0.00 | 0.00 | 1062.1 | |
| 20260904073957 | 0 | 159 | 1.0 | 2.0 | 0.00 | 0.00 | 0.00 | 1062.2 | |
| 20260904073453 | 0 | 175 | 1.0 | 3.0 | 0.00 | 0.00 | 0.00 | 1062.2 | |
| 20260904072948 | 0 | 165 | 1.0 | 3.0 | 0.00 | 0.00 | 0.00 | 1062.1 | |
| 20260904072444 | 0 | 155 | 1.0 | 2.0 | 0.00 | 0.00 | 0.00 | 1062.3 | |
| 20260904071938 | 0 | 173 | 2.0 | 3.0 | 0.00 | 0.00 | 0.00 | 1062.2 | |
| 20260904071434 | 0 | 163 | 2.0 | 2.0 | 0.00 | 0.00 | 0.00 | 1062.1 | |
| 20260904070929 | 0 | 154 | 1.0 | 2.0 | 0.00 | 0.00 | 0.00 | 1062.0 | |
| 20260904070428 | 0 | 178 | 3.0 | 3.0 | 0.00 | 0.00 | 0.00 | 1062.2 | |
| 20260904065923 | 0 | 196 | 4.0 | 5.0 | 0.00 | 0.00 | 0.00 | 1062.4 | |
| 20260904065419 | 0 | 167 | 2.0 | 3.0 | 0.00 | 0.00 | 0.00 | 1062.2 | |
| 20260904064918 | 0 | 147 | 3.0 | 5.0 | 0.00 | 0.00 | 0.00 | 1062.4 | |
| 20260904064414 | 0 | 147 | 3.0 | 6.0 | 0.00 | 0.00 | 0.00 | 1062.2 | |
| 20260904063909 | 0 | 193 | 4.0 | 6.0 | 0.00 | 0.00 | 0.00 | 1062.2 | |
| 20260904063407 | 0 | 153 | 4.0 | 5.0 | 0.00 | 0.00 | 0.00 | 1062.3 | |
| 20260904062901 | 0 | 161 | 3.0 | 3.0 | 0.00 | 0.00 | 0.00 | 1062.3 | |
| 20260904062357 | 0 | 163 | 5.0 | 6.0 | 0.00 | 0.00 | 0.00 | 1062.5 | |
| 20260904061853 | 0 | 188 | 3.0 | 5.0 | 0.00 | 0.00 | 0.00 | 1062.4 | |
| 20260904061349 | 0 | 165 | 2.0 | 7.0 | 0.00 | 0.00 | 0.00 | 1062.2 | |
| 20260904060845 | 0 | 164 | 1.0 | 3.0 | 0.00 | 0.00 | 0.00 | 1062.2 | |
| 20260904060341 | 0 | 171 | 2.0 | 3.0 | 0.00 | 0.00 | 0.00 | 1062.3 | |
| 20260904055835 | 0 | 169 | 1.0 | 2.0 | 0.00 | 0.00 | 0.00 | 1062.1 | |
| 20260904055331 | 0 | 176 | 2.0 | 2.0 | 0.00 | 0.00 | 0.00 | 1062.4 | |
| 20260904054827 | 0 | 144 | 1.0 | 3.0 | 0.00 | 0.00 | 0.00 | 1062.3 | |
| 20260904054322 | 0 | 184 | 1.0 | 2.0 | 0.00 | 0.00 | 0.00 | 1062.3 | |
| 20260904053812 | 0 | 158 | 1.0 | 5.0 | 0.00 | 0.00 | 0.00 | 1062.3 | |
| 20260904053311 | 0 | 158 | 1.0 | 2.0 | 0.00 | 0.00 | 0.00 | 1062.2 | |
| 20260904052807 | 0 | 177 | 1.0 | 2.0 | 0.00 | 0.00 | 0.00 | 1062.2 | |
| 20260904052306 | 0 | 166 | 1.0 | 2.0 | 0.00 | 0.00 | 0.00 | 1062.2 | |
| 20260904051754 | 0 | 156 | 1.0 | 6.0 | 0.00 | 0.00 | 0.00 | 1062.2 | |
| 20260904051249 | 0 | 173 | 3.0 | 3.0 | 0.00 | 0.00 | 0.00 | 1062.3 | |
| 20260904050744 | 0 | 191 | 2.0 | 2.0 | 0.00 | 0.00 | 0.00 | 1062.0 | |
| 20260904050240 | 0 | 145 | 1.0 | 6.0 | 0.00 | 0.00 | 0.00 | 1062.1 | |
| 20260904045735 | 0 | 162 | 2.0 | 5.0 | 0.00 | 0.00 | 0.00 | 1062.2 | |
| 20260904045229 | 0 | 166 | 3.0 | 8.0 | 0.00 | 0.00 | 0.00 | 1062.1 | |
| 20260904044724 | 0 | 169 | 1.0 | 3.0 | 0.00 | 0.00 | 0.00 | 1062.2 | |
| 20260904044221 | 0 | 161 | 3.0 | 3.0 | 0.00 | 0.00 | 0.00 | 1062.1 | |
| 20260904043716 | 0 | 166 | 3.0 | 5.0 | 0.00 | 0.00 | 0.00 | 1062.3 | |
| 20260904043212 | 0 | 176 | 3.0 | 5.0 | 0.00 | 0.00 | 0.00 | 1062.1 | |
| 20260904042708 | 0 | 149 | 2.0 | 3.0 | 0.00 | 0.00 | 0.00 | 1062.2 | |
| 20260904042205 | 0 | 162 | 1.0 | 2.0 | 0.00 | 0.00 | 0.00 | 1062.3 | |
| 20260904041704 | 0 | 177 | 2.0 | 2.0 | 0.00 | 0.00 | 0.00 | 1062.3 | |
| 20260904041200 | 0 | 159 | 1.0 | 2.0 | 0.00 | 0.00 | 0.00 | 1062.3 | |
| 20260904040656 | 0 | 173 | 3.0 | 3.0 | 0.00 | 0.00 | 0.00 | 1062.4 | |
| 20260904040152 | 0 | 142 | 1.0 | 1.0 | 0.00 | 0.00 | 0.00 | 1062.3 | |
| 20260904035647 | 0 | 170 | 1.0 | 2.0 | 0.00 | 0.00 | 0.00 | 1062.3 | |
| 20260904035142 | 0 | 170 | 1.0 | 2.0 | 0.00 | 0.00 | 0.00 | 1062.4 | |
| 20260904034641 | 0 | 177 | 2.0 | 5.0 | 0.00 | 0.00 | 0.00 | 1062.1 | |
| 20260904034137 | 0 | 163 | 1.0 | 3.0 | 0.00 | 0.00 | 0.00 | 1062.3 | |
| 20260904033633 | 0 | 184 | 3.0 | 5.0 | 0.00 | 0.00 | 0.00 | 1062.3 | |
| 20260904033130 | 0 | 165 | 2.0 | 2.0 | 0.00 | 0.00 | 0.00 | 1062.2 | |
| 20260904032625 | 0 | 140 | 2.0 | 2.0 | 0.00 | 0.00 | 0.00 | 1062.2 | |
| 20260904032124 | 0 | 151 | 1.0 | 2.0 | 0.00 | 0.00 | 0.00 | 1062.2 | |
| 20260904031623 | 0 | 159 | 1.0 | 2.0 | 0.00 | 0.00 | 0.00 | 1062.3 | |
| 20260904031120 | 0 | 190 | 3.0 | 3.0 | 0.00 | 0.00 | 0.00 | 1062.3 | |
| 20260904030615 | 0 | 168 | 2.0 | 5.0 | 0.00 | 0.00 | 0.00 | 1062.3 | |
| 20260904030111 | 0 | 171 | 1.0 | 2.0 | 0.00 | 0.00 | 0.00 | 1062.0 | |
| 20260904025606 | 0 | 177 | 2.0 | 5.0 | 0.00 | 0.00 | 0.00 | 1062.3 | |
| 20260904025101 | 0 | 184 | 1.0 | 3.0 | 0.00 | 0.00 | 0.00 | 1062.1 | |
| 20260904024557 | 0 | 150 | 1.0 | 3.0 | 0.00 | 0.00 | 0.00 | 1062.0 | |
| 20260904024052 | 0 | 183 | 3.0 | 5.0 | 0.00 | 0.00 | 0.00 | 1062.0 | |
| 20260904023548 | 0 | 152 | 2.0 | 3.0 | 0.00 | 0.00 | 0.00 | 1061.9 | |
| 20260904023044 | 0 | 172 | 1.0 | 2.0 | 0.00 | 0.00 | 0.00 | 1061.9 | |
| 20260904022538 | 0 | 181 | 2.0 | 3.0 | 0.00 | 0.00 | 0.00 | 1061.9 | |
| 20260904022036 | 0 | 171 | 4.0 | 6.0 | 0.00 | 0.00 | 0.00 | 1061.9 | |
| 20260904021531 | 0 | 166 | 3.0 | 6.0 | 0.00 | 0.00 | 0.00 | 1061.6 | |
| 20260904021026 | 0 | 177 | 2.0 | 6.0 | 0.00 | 0.00 | 0.00 | 1061.6 | |
| 20260904020521 | 0 | 166 | 2.0 | 6.0 | 0.00 | 0.00 | 0.00 | 1061.8 | |
| 20260904020021 | 0 | 194 | 4.0 | 6.0 | 0.00 | 0.00 | 0.00 | 1061.5 | |
| 20260904015515 | 0 | 176 | 3.0 | 6.0 | 0.00 | 0.00 | 0.00 | 1061.6 | |
| 20260904015014 | 0 | 190 | 3.0 | 7.0 | 0.00 | 0.00 | 0.00 | 1061.4 | |
| 20260904014508 | 0 | 188 | 3.0 | 6.0 | 0.00 | 0.00 | 0.00 | 1061.3 | |
| 20260904014004 | 0 | 184 | 2.0 | 5.0 | 0.00 | 0.00 | 0.00 | 1061.5 | |
| 20260904013500 | 0 | 185 | 3.0 | 5.0 | 0.00 | 0.00 | 0.00 | 1061.4 | |
| 20260904012957 | 0 | 189 | 3.0 | 6.0 | 0.00 | 0.00 | 0.00 | 1061.5 | |
| 20260904012456 | 0 | 142 | 3.0 | 5.0 | 0.00 | 0.00 | 0.00 | 1061.1 | |
| 20260904011950 | 0 | 174 | 2.0 | 3.0 | 0.00 | 0.00 | 0.00 | 1061.3 | |
| 20260904011445 | 0 | 145 | 2.0 | 3.0 | 0.00 | 0.00 | 0.00 | 1061.2 | |
| 20260904010940 | 0 | 168 | 2.0 | 3.0 | 0.00 | 0.00 | 0.00 | 1061.1 | |
| 20260904010431 | 0 | 162 | 3.0 | 5.0 | 0.00 | 0.00 | 0.00 | 1061.2 | |
| 20260904005925 | 0 | 192 | 2.0 | 5.0 | 0.00 | 0.00 | 0.00 | 1060.8 | |
| 20260904005422 | 0 | 169 | 3.0 | 7.0 | 0.00 | 0.00 | 0.00 | 1061.4 | |
| 20260904004921 | 0 | 173 | 1.0 | 5.0 | 0.00 | 0.00 | 0.00 | 1061.2 | |
| 20260904004418 | 0 | 169 | 3.0 | 3.0 | 0.00 | 0.00 | 0.00 | 1061.0 | |
| 20260904003913 | 0 | 146 | 1.0 | 3.0 | 0.00 | 0.00 | 0.00 | 1060.9 | |
| 20260904003409 | 0 | 174 | 4.0 | 8.0 | 0.00 | 0.00 | 0.00 | 1061.0 | |
| 20260904002908 | 0 | 152 | 2.0 | 5.0 | 0.00 | 0.00 | 0.00 | 1060.9 | |
| 20260904002406 | 0 | 176 | 2.0 | 6.0 | 0.00 | 0.00 | 0.00 | 1060.7 | |
| 20260904001904 | 0 | 139 | 2.0 | 5.0 | 0.00 | 0.00 | 0.00 | 1060.9 | |
| 20260904001401 | 0 | 140 | 1.0 | 5.0 | 0.00 | 0.00 | 0.00 | 1060.7 | |
| 20260904000900 | 0 | 160 | 3.0 | 5.0 | 0.00 | 0.00 | 0.00 | 1060.8 | |
| 20260904000355 | 0 | 136 | 1.0 | 6.0 | 0.00 | 0.00 | 0.00 | 1061.1 | |
| 20260903235854 | 0 | 152 | 1.0 | 5.0 | 0.00 | 0.00 | 0.00 | 1060.9 | |
| 20260903235350 | 0 | 189 | 3.0 | 8.0 | 0.00 | 0.00 | 0.00 | 1060.7 | |
| 20260903234849 | 0 | 176 | 1.0 | 5.0 | 0.00 | 0.00 | 0.00 | 1060.7 | |
| 20260903234346 | 0 | 187 | 4.0 | 6.0 | 0.00 | 0.00 | 0.00 | 1060.7 | |
| 20260903233842 | 0 | 194 | 3.0 | 6.0 | 0.00 | 0.00 | 0.00 | 1060.9 | |
| 20260903233338 | 0 | 160 | 4.0 | 6.0 | 0.00 | 0.00 | 0.00 | 1060.7 | |
| 20260903232837 | 0 | 178 | 6.0 | 9.0 | 0.00 | 0.00 | 0.00 | 1061.0 | |
| 20260903232333 | 0 | 160 | 2.0 | 3.0 | 0.00 | 0.00 | 0.00 | 1060.7 | |
| 20260903231832 | 0 | 198 | 3.0 | 8.0 | 0.00 | 0.00 | 0.00 | 1060.6 | |
| 20260903231327 | 0 | 170 | 4.0 | 7.0 | 0.00 | 0.00 | 0.00 | 1060.6 | |
| 20260903230822 | 0 | 195 | 2.0 | 8.0 | 0.00 | 0.00 | 0.00 | 1060.6 | |
| 20260903230318 | 0 | 184 | 5.0 | 8.0 | 0.00 | 0.00 | 0.00 | 1060.7 | |
| 20260903225814 | 0 | 161 | 4.0 | 8.0 | 0.00 | 0.00 | 0.00 | 1060.7 | |
| 20260903225310 | 0 | 176 | 4.0 | 8.0 | 0.00 | 0.00 | 0.00 | 1060.7 | |
| 20260903224806 | 0 | 201 | 7.0 | 9.0 | 0.00 | 0.00 | 0.00 | 1060.3 | |
| 20260903224301 | 0 | 140 | 0.0 | 3.0 | 0.00 | 0.00 | 0.00 | 1060.4 | |
| 20260903223757 | 0 | 168 | 5.0 | 14.0 | 0.00 | 0.00 | 0.00 | 1060.3 | |
| 20260903223255 | 0 | 151 | 3.0 | 7.0 | 0.00 | 0.00 | 0.00 | 1060.3 | |
| 20260903222745 | 0 | 165 | 5.0 | 6.0 | 0.00 | 0.00 | 0.00 | 1060.4 | |
| 20260903222244 | 0 | 168 | 1.0 | 2.0 | 0.00 | 0.00 | 0.00 | 1060.4 | |
| 20260903221739 | 0 | 179 | 5.0 | 8.0 | 0.00 | 0.00 | 0.00 | 1060.6 | |
| 20260903221237 | 0 | 168 | 3.0 | 6.0 | 0.00 | 0.00 | 0.00 | 1060.7 | |
| 20260903220736 | 0 | 148 | 5.0 | 14.0 | 0.00 | 0.00 | 0.00 | 1060.6 | |
| 20260903220231 | 0 | 182 | 4.0 | 9.0 | 0.00 | 0.00 | 0.00 | 1060.7 | |
| 20260903215729 | 0 | 176 | 2.0 | 5.0 | 0.00 | 0.00 | 0.00 | 1060.6 | |
| 20260903215225 | 0 | 176 | 3.0 | 8.0 | 0.00 | 0.00 | 0.00 | 1060.6 | |
| 20260903214723 | 0 | 192 | 1.0 | 5.0 | 0.00 | 0.00 | 0.00 | 1060.6 | |
| 20260903214220 | 0 | 152 | 4.0 | 6.0 | 0.00 | 0.00 | 0.00 | 1060.6 | |
| 20260903213714 | 0 | 178 | 2.0 | 7.0 | 0.00 | 0.00 | 0.00 | 1060.7 | |
| 20260903213210 | 0 | 178 | 5.0 | 6.0 | 0.00 | 0.00 | 0.00 | 1060.9 | |
| 20260903212706 | 0 | 152 | 2.0 | 7.0 | 0.00 | 0.00 | 0.00 | 1060.6 | |
| 20260903212202 | 0 | 175 | 3.0 | 8.0 | 0.00 | 0.00 | 0.00 | 1060.7 | |
| 20260903211701 | 0 | 180 | 5.0 | 7.0 | 0.00 | 0.00 | 0.00 | 1060.9 | |
| 20260903211158 | 0 | 186 | 5.0 | 9.0 | 0.00 | 0.00 | 0.00 | 1060.6 | |
| 20260903210653 | 0 | 144 | 2.0 | 6.0 | 0.00 | 0.00 | 0.00 | 1060.8 | |
| 20260903210149 | 0 | 159 | 6.0 | 8.0 | 0.00 | 0.00 | 0.00 | 1060.9 | |
| 20260903205649 | 0 | 193 | 5.0 | 10.0 | 0.00 | 0.00 | 0.00 | 1060.9 | |
| 20260903205148 | 0 | 116 | 3.0 | 8.0 | 0.00 | 0.00 | 0.00 | 1060.7 | |
| 20260903204644 | 0 | 195 | 5.0 | 7.0 | 0.00 | 0.00 | 0.00 | 1060.9 | |
| 20260903204139 | 0 | 192 | 4.0 | 7.0 | 0.00 | 0.00 | 0.00 | 1061.2 | |
| 20260903203635 | 0 | 186 | 3.0 | 9.0 | 0.00 | 0.00 | 0.00 | 1061.1 | |
| 20260903203130 | 0 | 124 | 3.0 | 5.0 | 0.00 | 0.00 | 0.00 | 1061.0 | |
| 20260903202625 | 0 | 150 | 0.0 | 3.0 | 0.00 | 0.00 | 0.00 | 1061.0 | |
| 20260903202120 | 0 | 219 | 4.0 | 9.0 | 0.00 | 0.00 | 0.00 | 1061.3 | |
| 20260903201615 | 0 | 157 | 2.0 | 8.0 | 0.00 | 0.00 | 0.00 | 1061.2 | |
| 20260903201114 | 0 | 136 | 3.0 | 8.0 | 0.00 | 0.00 | 0.00 | 1061.3 | |
| 20260903200609 | 0 | 182 | 1.0 | 6.0 | 0.00 | 0.00 | 0.00 | 1061.4 | |
| 20260903200104 | 0 | 136 | 4.0 | 7.0 | 0.00 | 0.00 | 0.00 | 1061.3 |